sensor_id;sensor_type;location;lat;lon;timestamp;pressure;altitude;pressure_sealevel;temperature
20848;BMP180;10584;50.854;12.902;2022-11-06T08:07:00;98312.00;;;2.90
20848;BMP180;10584;50.854;12.902;2022-11-06T08:12:22;98296.00;;;3.40
20848;BMP180;10584;50.854;12.902;2022-11-06T08:17:26;98303.00;;;3.80
20848;BMP180;10584;50.854;12.902;2022-11-06T08:22:29;98310.00;;;4.20
20848;BMP180;10584;50.854;12.902;2022-11-06T08:27:31;98286.00;;;4.60
20848;BMP180;10584;50.854;12.902;2022-11-06T08:32:34;98290.00;;;5.10
20848;BMP180;10584;50.854;12.902;2022-11-06T08:37:37;98279.00;;;5.60
20848;BMP180;10584;50.854;12.902;2022-11-06T08:42:40;98272.00;;;6.20
20848;BMP180;10584;50.854;12.902;2022-11-06T08:47:43;98266.00;;;6.50
20848;BMP180;10584;50.854;12.902;2022-11-06T08:52:46;98258.00;;;6.70
20848;BMP180;10584;50.854;12.902;2022-11-06T08:57:53;98253.00;;;7.10
20848;BMP180;10584;50.854;12.902;2022-11-06T09:02:58;98245.00;;;7.50
20848;BMP180;10584;50.854;12.902;2022-11-06T09:08:01;98252.00;;;7.80
20848;BMP180;10584;50.854;12.902;2022-11-06T09:13:04;98237.00;;;8.00
20848;BMP180;10584;50.854;12.902;2022-11-06T09:18:07;98227.00;;;8.30
20848;BMP180;10584;50.854;12.902;2022-11-06T09:23:10;98210.00;;;8.60
20848;BMP180;10584;50.854;12.902;2022-11-06T09:28:14;98217.00;;;8.80
20848;BMP180;10584;50.854;12.902;2022-11-06T09:33:17;98212.00;;;9.10
20848;BMP180;10584;50.854;12.902;2022-11-06T09:38:20;98201.00;;;9.40
20848;BMP180;10584;50.854;12.902;2022-11-06T09:49:21;98197.00;;;9.60
20848;BMP180;10584;50.854;12.902;2022-11-06T09:54:34;98190.00;;;10.00
20848;BMP180;10584;50.854;12.902;2022-11-06T09:59:38;98199.00;;;10.20
20848;BMP180;10584;50.854;12.902;2022-11-06T10:05:12;98192.00;;;10.40
20848;BMP180;10584;50.854;12.902;2022-11-06T10:10:20;98178.00;;;10.60
20848;BMP180;10584;50.854;12.902;2022-11-06T10:20:51;98177.00;;;10.80
20848;BMP180;10584;50.854;12.902;2022-11-06T10:26:06;98175.00;;;10.80
20848;BMP180;10584;50.854;12.902;2022-11-06T10:36:35;98168.00;;;11.30
20848;BMP180;10584;50.854;12.902;2022-11-06T10:41:48;98164.00;;;11.40
20848;BMP180;10584;50.854;12.902;2022-11-06T10:47:09;98156.00;;;11.50
20848;BMP180;10584;50.854;12.902;2022-11-06T10:52:27;98148.00;;;11.60
20848;BMP180;10584;50.854;12.902;2022-11-06T10:57:53;98132.00;;;11.70
20848;BMP180;10584;50.854;12.902;2022-11-06T11:03:02;98146.00;;;11.80
20848;BMP180;10584;50.854;12.902;2022-11-06T11:08:31;98135.00;;;12.00
20848;BMP180;10584;50.854;12.902;2022-11-06T11:13:34;98121.00;;;12.10
20848;BMP180;10584;50.854;12.902;2022-11-06T11:18:37;98120.00;;;12.30
20848;BMP180;10584;50.854;12.902;2022-11-06T11:23:40;98112.00;;;12.40
20848;BMP180;10584;50.854;12.902;2022-11-06T11:28:43;98103.00;;;12.50
20848;BMP180;10584;50.854;12.902;2022-11-06T11:33:53;98103.00;;;12.50
20848;BMP180;10584;50.854;12.902;2022-11-06T11:38:57;98094.00;;;12.50
20848;BMP180;10584;50.854;12.902;2022-11-06T11:54:35;98088.00;;;12.70
20848;BMP180;10584;50.854;12.902;2022-11-06T11:59:46;98078.00;;;12.80
20848;BMP180;10584;50.854;12.902;2022-11-06T12:04:53;98073.00;;;12.80
20848;BMP180;10584;50.854;12.902;2022-11-06T12:09:57;98062.00;;;12.80
20848;BMP180;10584;50.854;12.902;2022-11-06T12:20:16;98029.00;;;12.90
20848;BMP180;10584;50.854;12.902;2022-11-06T12:25:29;98024.00;;;12.80
20848;BMP180;10584;50.854;12.902;2022-11-06T12:30:34;98008.00;;;12.80
20848;BMP180;10584;50.854;12.902;2022-11-06T12:35:42;98017.00;;;13.00
20848;BMP180;10584;50.854;12.902;2022-11-06T12:40:58;97997.00;;;12.90
20848;BMP180;10584;50.854;12.902;2022-11-06T12:57:45;98008.00;;;13.40
20848;BMP180;10584;50.854;12.902;2022-11-06T13:03:15;97994.00;;;13.40
20848;BMP180;10584;50.854;12.902;2022-11-06T13:19:23;97976.00;;;13.60
20848;BMP180;10584;50.854;12.902;2022-11-06T13:24:31;97976.00;;;13.70
20848;BMP180;10584;50.854;12.902;2022-11-06T13:29:37;97974.00;;;13.70
20848;BMP180;10584;50.854;12.902;2022-11-06T13:34:42;97959.00;;;13.50
20848;BMP180;10584;50.854;12.902;2022-11-06T13:39:55;97955.00;;;13.40
20848;BMP180;10584;50.854;12.902;2022-11-06T13:45:01;97953.00;;;13.40
20848;BMP180;10584;50.854;12.902;2022-11-06T13:50:31;97942.00;;;13.60
20848;BMP180;10584;50.854;12.902;2022-11-06T14:01:30;97933.00;;;13.70
20848;BMP180;10584;50.854;12.902;2022-11-06T14:06:35;97932.00;;;13.80
20848;BMP180;10584;50.854;12.902;2022-11-06T14:11:41;97922.00;;;12.90
20848;BMP180;10584;50.854;12.902;2022-11-06T14:16:45;97921.00;;;12.80
20848;BMP180;10584;50.854;12.902;2022-11-06T14:22:35;97901.00;;;12.90
20848;BMP180;10584;50.854;12.902;2022-11-06T14:32:46;97893.00;;;12.80
20848;BMP180;10584;50.854;12.902;2022-11-06T14:37:49;97891.00;;;12.30
20848;BMP180;10584;50.854;12.902;2022-11-06T14:42:52;97879.00;;;12.20
20848;BMP180;10584;50.854;12.902;2022-11-06T14:47:55;97874.00;;;12.00
20848;BMP180;10584;50.854;12.902;2022-11-06T14:53:04;97882.00;;;11.70
20848;BMP180;10584;50.854;12.902;2022-11-06T14:58:47;97874.00;;;11.30
20848;BMP180;10584;50.854;12.902;2022-11-06T15:03:54;97869.00;;;10.70
20848;BMP180;10584;50.854;12.902;2022-11-06T15:25:18;97884.00;;;9.40
20848;BMP180;10584;50.854;12.902;2022-11-06T15:30:21;97870.00;;;9.40
20848;BMP180;10584;50.854;12.902;2022-11-06T15:35:27;97860.00;;;9.00
20848;BMP180;10584;50.854;12.902;2022-11-06T15:40:34;97865.00;;;8.90
20848;BMP180;10584;50.854;12.902;2022-11-06T15:45:38;97856.00;;;8.70
20848;BMP180;10584;50.854;12.902;2022-11-06T15:50:42;97849.00;;;8.50
20848;BMP180;10584;50.854;12.902;2022-11-06T15:56:01;97847.00;;;8.30
20848;BMP180;10584;50.854;12.902;2022-11-06T16:01:06;97841.00;;;8.10
20848;BMP180;10584;50.854;12.902;2022-11-06T16:06:09;97848.00;;;7.80
20848;BMP180;10584;50.854;12.902;2022-11-06T16:11:16;97843.00;;;7.80
20848;BMP180;10584;50.854;12.902;2022-11-06T16:16:33;97844.00;;;7.50
20848;BMP180;10584;50.854;12.902;2022-11-06T16:21:36;97819.00;;;7.50
20848;BMP180;10584;50.854;12.902;2022-11-06T16:26:47;97814.00;;;7.40
20848;BMP180;10584;50.854;12.902;2022-11-06T16:32:03;97814.00;;;7.30
20848;BMP180;10584;50.854;12.902;2022-11-06T16:42:35;97811.00;;;7.10
20848;BMP180;10584;50.854;12.902;2022-11-06T16:47:38;97816.00;;;7.10
20848;BMP180;10584;50.854;12.902;2022-11-06T16:52:40;97804.00;;;7.20
20848;BMP180;10584;50.854;12.902;2022-11-06T16:57:44;97803.00;;;7.00
20848;BMP180;10584;50.854;12.902;2022-11-06T17:08:20;97806.00;;;6.70
20848;BMP180;10584;50.854;12.902;2022-11-06T17:13:31;97791.00;;;6.50
20848;BMP180;10584;50.854;12.902;2022-11-06T17:18:36;97790.00;;;6.30
20848;BMP180;10584;50.854;12.902;2022-11-06T17:23:40;97793.00;;;6.30
20848;BMP180;10584;50.854;12.902;2022-11-06T17:28:43;97797.00;;;6.20
20848;BMP180;10584;50.854;12.902;2022-11-06T17:33:49;97781.00;;;6.00
20848;BMP180;10584;50.854;12.902;2022-11-06T17:38:53;97779.00;;;5.90
20848;BMP180;10584;50.854;12.902;2022-11-06T17:44:04;97769.00;;;5.80
20848;BMP180;10584;50.854;12.902;2022-11-06T17:49:08;97759.00;;;5.80
20848;BMP180;10584;50.854;12.902;2022-11-06T17:54:29;97760.00;;;6.00
20848;BMP180;10584;50.854;12.902;2022-11-06T17:59:34;97754.00;;;6.10
20848;BMP180;10584;50.854;12.902;2022-11-06T18:04:37;97746.00;;;6.20
20848;BMP180;10584;50.854;12.902;2022-11-06T18:09:40;97733.00;;;6.10
20848;BMP180;10584;50.854;12.902;2022-11-06T18:14:43;97728.00;;;6.20
20848;BMP180;10584;50.854;12.902;2022-11-06T18:19:45;97726.00;;;6.30
20848;BMP180;10584;50.854;12.902;2022-11-06T18:24:49;97728.00;;;6.30
20848;BMP180;10584;50.854;12.902;2022-11-06T18:29:52;97728.00;;;6.40
20848;BMP180;10584;50.854;12.902;2022-11-06T18:34:55;97730.00;;;6.40
20848;BMP180;10584;50.854;12.902;2022-11-06T18:39:57;97738.00;;;6.40
20848;BMP180;10584;50.854;12.902;2022-11-06T18:45:00;97728.00;;;6.50
20848;BMP180;10584;50.854;12.902;2022-11-06T18:50:03;97729.00;;;6.50
20848;BMP180;10584;50.854;12.902;2022-11-06T18:55:06;97742.00;;;6.50
20848;BMP180;10584;50.854;12.902;2022-11-06T19:00:10;97735.00;;;6.50
20848;BMP180;10584;50.854;12.902;2022-11-06T19:05:14;97727.00;;;6.70
20848;BMP180;10584;50.854;12.902;2022-11-06T19:10:17;97740.00;;;6.70
20848;BMP180;10584;50.854;12.902;2022-11-06T19:15:20;97748.00;;;6.70
20848;BMP180;10584;50.854;12.902;2022-11-06T19:20:23;97737.00;;;6.90
20848;BMP180;10584;50.854;12.902;2022-11-06T19:25:26;97747.00;;;6.80
20848;BMP180;10584;50.854;12.902;2022-11-06T19:30:29;97753.00;;;6.70
20848;BMP180;10584;50.854;12.902;2022-11-06T19:35:32;97749.00;;;6.70
20848;BMP180;10584;50.854;12.902;2022-11-06T19:40:34;97741.00;;;6.80
20848;BMP180;10584;50.854;12.902;2022-11-06T19:45:37;97735.00;;;6.90
20848;BMP180;10584;50.854;12.902;2022-11-06T19:50:47;97732.00;;;6.90
20848;BMP180;10584;50.854;12.902;2022-11-06T19:56:07;97729.00;;;7.00
20848;BMP180;10584;50.854;12.902;2022-11-06T20:01:12;97727.00;;;6.90
20848;BMP180;10584;50.854;12.902;2022-11-06T20:06:15;97731.00;;;7.00
20848;BMP180;10584;50.854;12.902;2022-11-06T20:11:18;97724.00;;;7.10
20848;BMP180;10584;50.854;12.902;2022-11-06T20:16:21;97719.00;;;7.00
20848;BMP180;10584;50.854;12.902;2022-11-06T20:21:26;97722.00;;;7.10
20848;BMP180;10584;50.854;12.902;2022-11-06T20:26:32;97715.00;;;7.10
20848;BMP180;10584;50.854;12.902;2022-11-06T20:31:36;97721.00;;;7.00
20848;BMP180;10584;50.854;12.902;2022-11-06T20:36:39;97721.00;;;7.10
20848;BMP180;10584;50.854;12.902;2022-11-06T20:41:42;97719.00;;;6.90
20848;BMP180;10584;50.854;12.902;2022-11-06T20:46:46;97725.00;;;7.00
20848;BMP180;10584;50.854;12.902;2022-11-06T20:51:49;97727.00;;;7.00
20848;BMP180;10584;50.854;12.902;2022-11-06T20:57:12;97723.00;;;7.10
20848;BMP180;10584;50.854;12.902;2022-11-06T21:02:15;97713.00;;;7.00
20848;BMP180;10584;50.854;12.902;2022-11-06T21:07:18;97702.00;;;7.00
20848;BMP180;10584;50.854;12.902;2022-11-06T21:12:22;97697.00;;;7.00
20848;BMP180;10584;50.854;12.902;2022-11-06T21:17:25;97681.00;;;7.10
20848;BMP180;10584;50.854;12.902;2022-11-06T21:22:27;97679.00;;;7.10
20848;BMP180;10584;50.854;12.902;2022-11-06T21:27:30;97676.00;;;6.90
20848;BMP180;10584;50.854;12.902;2022-11-06T21:32:33;97684.00;;;7.10
20848;BMP180;10584;50.854;12.902;2022-11-06T21:37:36;97647.00;;;7.00
20848;BMP180;10584;50.854;12.902;2022-11-06T21:42:38;97641.00;;;7.10
20848;BMP180;10584;50.854;12.902;2022-11-06T21:47:41;97645.00;;;7.10
20848;BMP180;10584;50.854;12.902;2022-11-06T21:52:44;97623.00;;;7.10
20848;BMP180;10584;50.854;12.902;2022-11-06T21:58:06;97630.00;;;7.10
20848;BMP180;10584;50.854;12.902;2022-11-06T22:03:08;97635.00;;;7.10
20848;BMP180;10584;50.854;12.902;2022-11-06T22:08:11;97645.00;;;7.00
20848;BMP180;10584;50.854;12.902;2022-11-06T22:13:14;97644.00;;;7.10
20848;BMP180;10584;50.854;12.902;2022-11-06T22:18:17;97640.00;;;6.90
20848;BMP180;10584;50.854;12.902;2022-11-06T22:23:20;97639.00;;;7.00
20848;BMP180;10584;50.854;12.902;2022-11-06T22:28:23;97655.00;;;7.00
20848;BMP180;10584;50.854;12.902;2022-11-06T22:33:26;97654.00;;;7.10
20848;BMP180;10584;50.854;12.902;2022-11-06T22:38:29;97657.00;;;7.10
20848;BMP180;10584;50.854;12.902;2022-11-06T22:43:32;97662.00;;;7.10
20848;BMP180;10584;50.854;12.902;2022-11-06T22:48:36;97658.00;;;7.10
20848;BMP180;10584;50.854;12.902;2022-11-06T22:53:39;97659.00;;;7.10
20848;BMP180;10584;50.854;12.902;2022-11-06T22:58:42;97671.00;;;7.20
20848;BMP180;10584;50.854;12.902;2022-11-06T23:03:45;97678.00;;;7.30
20848;BMP180;10584;50.854;12.902;2022-11-06T23:08:48;97681.00;;;7.50
20848;BMP180;10584;50.854;12.902;2022-11-06T23:13:52;97694.00;;;7.80
20848;BMP180;10584;50.854;12.902;2022-11-06T23:18:57;97687.00;;;8.00
20848;BMP180;10584;50.854;12.902;2022-11-06T23:24:00;97691.00;;;8.10
20848;BMP180;10584;50.854;12.902;2022-11-06T23:29:02;97696.00;;;8.30
20848;BMP180;10584;50.854;12.902;2022-11-06T23:34:05;97692.00;;;8.30
20848;BMP180;10584;50.854;12.902;2022-11-06T23:39:08;97677.00;;;8.30
20848;BMP180;10584;50.854;12.902;2022-11-06T23:44:12;97679.00;;;8.40
20848;BMP180;10584;50.854;12.902;2022-11-06T23:49:33;97686.00;;;8.50
20848;BMP180;10584;50.854;12.902;2022-11-06T23:54:36;97676.00;;;8.50
20848;BMP180;10584;50.854;12.902;2022-11-06T23:59:39;97666.00;;;8.60
